createdAt,value
2023-04-30T00:02:20.256Z,5.07
2023-04-30T00:04:47.298Z,4.97
2023-04-30T00:07:14.552Z,5.00
2023-04-30T00:09:41.646Z,4.63
2023-04-30T00:12:08.556Z,4.90
2023-04-30T00:14:36.988Z,5.30
2023-04-30T00:17:03.869Z,4.90
2023-04-30T00:19:30.708Z,5.20
2023-04-30T00:21:57.666Z,4.70
2023-04-30T00:24:24.527Z,5.03
2023-04-30T00:26:51.373Z,5.30
2023-04-30T00:29:18.238Z,4.80
2023-04-30T00:31:45.208Z,5.30
2023-04-30T00:34:12.086Z,4.97
2023-04-30T00:36:39.816Z,4.88
2023-04-30T00:39:06.813Z,4.72
2023-04-30T00:41:35.785Z,4.90
2023-04-30T00:44:02.949Z,5.45
2023-04-30T00:46:30.993Z,5.20
2023-04-30T00:48:58.195Z,5.07
2023-04-30T00:51:25.125Z,5.00
2023-04-30T00:53:52.082Z,5.28
2023-04-30T00:56:18.979Z,5.13
2023-04-30T00:58:46.181Z,5.40
2023-04-30T01:01:13.879Z,5.25
2023-04-30T01:03:41.671Z,5.13
2023-04-30T01:06:08.632Z,5.38
2023-04-30T01:08:35.705Z,5.53
2023-04-30T01:11:31.844Z,5.05
2023-04-30T01:14:10.268Z,5.20
2023-04-30T01:16:48.098Z,5.32
2023-04-30T01:19:38.675Z,4.95
2023-04-30T01:22:09.594Z,5.55
2023-04-30T01:25:05.976Z,5.43
2023-04-30T01:28:00.607Z,4.90
2023-04-30T01:30:27.819Z,4.82
2023-04-30T01:32:54.961Z,5.05
2023-04-30T01:35:48.905Z,5.10
2023-04-30T01:38:30.720Z,5.07
2023-04-30T01:41:11.010Z,5.35
2023-04-30T01:43:52.754Z,5.13
2023-04-30T01:46:27.665Z,5.03
2023-04-30T01:49:15.633Z,5.50
2023-04-30T01:51:47.563Z,5.03
2023-04-30T01:54:45.329Z,5.18
2023-04-30T01:57:18.321Z,5.13
2023-04-30T01:59:45.897Z,5.18
2023-04-30T02:02:12.766Z,4.80
2023-04-30T02:04:39.668Z,4.88
2023-04-30T02:07:06.573Z,5.35
2023-04-30T02:09:33.427Z,5.28
2023-04-30T02:12:00.789Z,5.22
2023-04-30T02:14:27.958Z,4.90
2023-04-30T02:16:54.842Z,5.03
2023-04-30T02:19:21.817Z,5.03
2023-04-30T02:21:48.682Z,5.00
2023-04-30T02:24:15.573Z,4.60
2023-04-30T02:26:42.471Z,5.25
2023-04-30T02:29:09.367Z,5.70
2023-04-30T02:31:36.255Z,5.18
2023-04-30T02:34:03.200Z,5.72
2023-04-30T02:36:30.132Z,5.10
2023-04-30T02:38:57.035Z,4.88
2023-04-30T02:41:23.974Z,5.40
2023-04-30T02:43:51.723Z,5.43
2023-04-30T02:46:19.306Z,5.25
2023-04-30T02:48:46.267Z,5.70
2023-04-30T02:51:13.431Z,5.15
2023-04-30T02:53:40.405Z,5.20
2023-04-30T02:56:08.195Z,5.32
2023-04-30T02:58:35.036Z,5.03
2023-04-30T03:01:01.924Z,4.78
2023-04-30T03:03:29.169Z,4.53
2023-04-30T03:05:56.890Z,5.13
2023-04-30T03:08:23.885Z,5.22
2023-04-30T03:10:50.832Z,4.82
2023-04-30T03:13:17.984Z,4.97
2023-04-30T03:15:45.206Z,5.55
2023-04-30T03:18:12.274Z,5.60
2023-04-30T03:20:39.537Z,4.93
2023-04-30T03:23:06.994Z,5.07
2023-04-30T03:25:33.969Z,4.80
2023-04-30T03:28:00.805Z,4.85
2023-04-30T03:30:27.657Z,5.00
2023-04-30T03:32:54.588Z,5.25
2023-04-30T03:35:21.786Z,5.70
2023-04-30T03:37:48.710Z,5.00
2023-04-30T03:40:15.615Z,5.03
2023-04-30T03:42:42.488Z,5.18
2023-04-30T03:45:09.656Z,4.90
2023-04-30T03:47:37.287Z,4.88
2023-04-30T03:50:04.693Z,5.05
2023-04-30T03:52:31.791Z,5.10
2023-04-30T03:54:58.699Z,5.10
2023-04-30T03:57:25.764Z,5.15
2023-04-30T03:59:52.800Z,5.15
2023-04-30T04:02:19.957Z,4.60
2023-04-30T04:04:47.355Z,4.75
2023-04-30T04:07:15.107Z,5.03
2023-04-30T04:09:42.049Z,5.13
2023-04-30T04:12:08.962Z,5.03
2023-04-30T04:14:35.857Z,5.10
2023-04-30T04:17:05.655Z,5.65
2023-04-30T04:19:32.574Z,4.53
2023-04-30T04:21:59.458Z,5.00
2023-04-30T04:24:26.770Z,5.07
2023-04-30T04:26:53.947Z,5.07
2023-04-30T04:29:20.872Z,4.63
2023-04-30T04:31:49.439Z,5.18
2023-04-30T04:34:16.750Z,4.47
2023-04-30T04:36:43.709Z,5.00
2023-04-30T04:39:12.054Z,5.47
2023-04-30T04:41:39.074Z,4.95
2023-04-30T04:44:05.890Z,4.53
2023-04-30T04:46:33.230Z,4.75
2023-04-30T04:49:00.203Z,4.93
2023-04-30T04:51:27.118Z,4.78
2023-04-30T04:53:54.082Z,4.22
2023-04-30T04:56:21.080Z,4.63
2023-04-30T04:58:48.160Z,4.38
2023-04-30T05:01:15.508Z,4.53
2023-04-30T05:03:42.613Z,4.63
2023-04-30T05:06:09.780Z,4.47
2023-04-30T05:08:36.686Z,4.80
2023-04-30T05:11:03.513Z,4.40
2023-04-30T05:13:30.449Z,4.45
2023-04-30T05:15:57.411Z,4.03
2023-04-30T05:18:24.249Z,4.63
2023-04-30T05:20:51.218Z,5.03
2023-04-30T05:23:18.145Z,4.93
2023-04-30T05:25:45.626Z,4.80
2023-04-30T05:28:12.748Z,4.70
2023-04-30T05:30:39.795Z,4.07
2023-04-30T05:33:06.740Z,3.90
2023-04-30T05:35:36.113Z,4.50
2023-04-30T05:38:03.914Z,4.38
2023-04-30T05:40:30.889Z,4.10
2023-04-30T05:42:57.834Z,4.20
2023-04-30T05:45:24.978Z,4.45
2023-04-30T05:47:52.023Z,4.10
2023-04-30T05:50:19.002Z,4.03
2023-04-30T05:52:45.895Z,3.90
2023-04-30T05:55:12.890Z,3.92
2023-04-30T05:57:39.816Z,4.13
2023-04-30T06:00:07.585Z,3.92
2023-04-30T06:02:34.562Z,3.90
2023-04-30T06:05:03.323Z,3.80
2023-04-30T06:07:30.864Z,4.20
2023-04-30T06:09:57.781Z,4.18
2023-04-30T06:12:24.882Z,3.75
2023-04-30T06:14:52.554Z,3.60
2023-04-30T06:17:19.530Z,4.25
2023-04-30T06:19:46.434Z,3.80
2023-04-30T06:22:13.458Z,3.67
2023-04-30T06:24:40.288Z,3.80
2023-04-30T06:27:07.120Z,3.90
2023-04-30T06:29:34.000Z,4.00
2023-04-30T06:32:00.938Z,3.97
2023-04-30T06:34:27.920Z,4.40
2023-04-30T06:36:54.776Z,4.20
2023-04-30T06:39:21.634Z,3.95
2023-04-30T06:41:48.570Z,4.30
2023-04-30T06:44:15.594Z,3.60
2023-04-30T06:46:42.574Z,3.75
2023-04-30T06:49:09.518Z,4.13
2023-04-30T06:51:37.331Z,4.07
2023-04-30T06:54:04.297Z,3.63
2023-04-30T06:56:31.143Z,3.70
2023-04-30T06:58:58.071Z,3.83
2023-04-30T07:01:24.972Z,3.67
2023-04-30T07:03:55.115Z,3.40
2023-04-30T07:06:22.639Z,3.60
2023-04-30T07:08:49.518Z,3.13
2023-04-30T07:11:16.941Z,3.35
2023-04-30T07:13:43.907Z,3.65
2023-04-30T07:16:10.913Z,3.55
2023-04-30T07:18:38.139Z,3.70
2023-04-30T07:21:05.059Z,3.45
2023-04-30T07:23:31.938Z,3.35
2023-04-30T07:25:59.162Z,3.30
2023-04-30T07:28:26.053Z,2.97
2023-04-30T07:30:53.294Z,3.40
2023-04-30T07:33:20.132Z,3.83
2023-04-30T07:35:47.018Z,3.42
2023-04-30T07:38:13.883Z,3.33
2023-04-30T07:40:40.809Z,3.25
2023-04-30T07:43:07.699Z,2.92
2023-04-30T07:45:35.006Z,2.97
2023-04-30T07:48:02.317Z,3.08
2023-04-30T07:50:34.014Z,3.03
2023-04-30T07:53:02.039Z,2.83
2023-04-30T07:55:29.118Z,2.80
2023-04-30T07:57:56.047Z,2.40
2023-04-30T08:00:23.203Z,2.60
2023-04-30T08:02:50.850Z,3.00
2023-04-30T08:05:18.097Z,2.38
2023-04-30T08:07:44.999Z,2.80
2023-04-30T08:10:12.273Z,2.40
2023-04-30T08:12:39.449Z,2.60
2023-04-30T08:15:07.693Z,2.38
2023-04-30T08:17:35.252Z,2.30
2023-04-30T08:20:04.583Z,2.50
2023-04-30T08:22:31.603Z,2.30
2023-04-30T08:24:58.658Z,2.50
2023-04-30T08:27:25.614Z,2.67
2023-04-30T08:29:52.660Z,3.17
2023-04-30T08:32:20.118Z,2.80
2023-04-30T08:34:47.115Z,2.88
2023-04-30T08:37:14.061Z,2.72
2023-04-30T08:39:40.927Z,2.60
2023-04-30T08:42:09.768Z,2.50
2023-04-30T08:44:43.980Z,2.20
2023-04-30T08:47:14.437Z,1.75
2023-04-30T08:49:42.112Z,2.20
2023-04-30T08:52:09.759Z,2.20
2023-04-30T08:54:37.349Z,2.88
2023-04-30T08:57:05.386Z,2.55
2023-04-30T08:59:32.257Z,2.70
2023-04-30T09:02:01.309Z,2.42
2023-04-30T09:04:29.240Z,2.30
2023-04-30T09:06:59.487Z,3.20
2023-04-30T09:09:30.914Z,2.90
2023-04-30T09:12:11.769Z,3.00
2023-04-30T09:14:40.362Z,3.00
2023-04-30T09:17:08.982Z,2.72
2023-04-30T09:19:36.081Z,2.80
2023-04-30T09:22:21.255Z,2.67
2023-04-30T09:24:49.563Z,2.78
2023-04-30T09:27:18.771Z,2.35
2023-04-30T09:29:46.606Z,3.00
2023-04-30T09:32:14.126Z,2.88
2023-04-30T09:34:41.938Z,2.90
2023-04-30T09:37:09.421Z,2.80
2023-04-30T09:39:48.259Z,2.45
2023-04-30T09:42:15.488Z,2.38
2023-04-30T09:44:43.543Z,3.25
2023-04-30T09:47:21.095Z,2.55
2023-04-30T09:49:51.824Z,2.50
2023-04-30T09:52:19.818Z,2.60
2023-04-30T09:54:47.865Z,2.85
2023-04-30T09:57:17.152Z,3.10
2023-04-30T09:59:46.196Z,2.50
2023-04-30T10:02:20.271Z,3.20
2023-04-30T10:04:53.818Z,2.55
2023-04-30T10:10:05.311Z,2.40
2023-04-30T10:12:44.424Z,3.08
2023-04-30T10:15:28.473Z,2.85
2023-04-30T10:18:02.832Z,2.45
2023-04-30T10:20:35.046Z,2.92
2023-04-30T10:23:02.142Z,2.67
2023-04-30T10:25:29.619Z,3.00
2023-04-30T10:27:57.265Z,3.03
2023-04-30T10:30:24.418Z,2.75
2023-04-30T10:33:30.075Z,2.83
2023-04-30T10:36:02.786Z,2.80
2023-04-30T10:38:32.148Z,2.58
2023-04-30T10:41:02.874Z,2.50
2023-04-30T10:43:36.009Z,2.90
2023-04-30T10:46:04.263Z,2.67
2023-04-30T10:48:35.525Z,2.65
2023-04-30T10:51:02.490Z,2.40
2023-04-30T10:53:33.754Z,2.75
2023-04-30T10:56:07.445Z,2.75
2023-04-30T10:58:39.500Z,2.75
2023-04-30T11:01:15.008Z,2.40
2023-04-30T11:04:02.902Z,2.33
2023-04-30T11:06:56.042Z,2.53
2023-04-30T11:09:44.342Z,2.67
2023-04-30T11:12:13.735Z,2.42
2023-04-30T11:14:45.055Z,2.40
2023-04-30T11:17:21.845Z,2.03
2023-04-30T11:19:50.665Z,1.98
2023-04-30T11:22:19.722Z,2.40
2023-04-30T11:24:55.552Z,2.47
2023-04-30T11:27:27.109Z,2.40
2023-04-30T11:29:55.119Z,2.50
2023-04-30T11:32:23.995Z,2.70
2023-04-30T11:34:51.269Z,2.60
2023-04-30T11:37:31.959Z,2.80
2023-04-30T11:40:02.512Z,2.30
2023-04-30T11:42:32.301Z,2.50
2023-04-30T11:45:08.548Z,2.58
2023-04-30T11:47:57.214Z,2.63
2023-04-30T11:50:29.695Z,2.42
2023-04-30T11:52:58.505Z,2.60
2023-04-30T11:55:27.895Z,2.45
2023-04-30T11:57:56.839Z,2.35
2023-04-30T12:00:28.752Z,2.10
2023-04-30T12:02:56.909Z,2.78
2023-04-30T12:05:30.569Z,2.53
2023-04-30T12:10:25.985Z,2.50
2023-04-30T12:12:54.726Z,2.92
2023-04-30T12:15:27.131Z,2.40
2023-04-30T12:17:56.653Z,2.87
2023-04-30T12:20:29.251Z,2.28
2023-04-30T12:22:57.106Z,2.05
2023-04-30T12:25:24.467Z,2.13
2023-04-30T12:27:54.649Z,2.28
2023-04-30T12:30:23.925Z,1.95
2023-04-30T12:32:53.338Z,1.92
2023-04-30T12:35:22.763Z,1.83
2023-04-30T12:37:52.674Z,2.08
2023-04-30T12:40:21.066Z,1.90
2023-04-30T12:42:48.548Z,1.85
2023-04-30T12:45:52.582Z,2.05
2023-04-30T12:50:53.191Z,1.90
2023-04-30T12:53:21.651Z,2.03
2023-04-30T12:56:27.157Z,2.00
2023-04-30T12:58:54.131Z,2.20
2023-04-30T13:01:23.215Z,2.10
2023-04-30T13:03:51.793Z,1.70
2023-04-30T13:06:18.995Z,1.80
2023-04-30T13:08:57.950Z,1.50
2023-04-30T13:11:26.941Z,1.83
2023-04-30T13:13:55.876Z,1.83
2023-04-30T13:16:25.038Z,1.77
2023-04-30T13:18:52.584Z,2.33
2023-04-30T13:21:19.729Z,2.10
2023-04-30T13:23:52.815Z,1.75
2023-04-30T13:26:21.962Z,2.15
2023-04-30T13:28:48.873Z,1.60
2023-04-30T13:31:15.878Z,1.95
2023-04-30T13:33:43.700Z,1.88
2023-04-30T13:36:10.664Z,1.98
2023-04-30T13:38:39.057Z,1.70
2023-04-30T13:41:06.394Z,1.90
2023-04-30T13:43:33.469Z,1.98
2023-04-30T13:46:00.397Z,2.10
2023-04-30T13:48:27.372Z,1.75
2023-04-30T13:50:54.473Z,1.70
2023-04-30T13:53:21.296Z,1.80
2023-04-30T13:55:48.506Z,2.08
2023-04-30T13:58:15.860Z,1.80
2023-04-30T14:00:43.062Z,2.17
2023-04-30T14:03:11.462Z,2.03
2023-04-30T14:05:39.424Z,1.67
2023-04-30T14:08:06.336Z,2.20
2023-04-30T14:10:34.354Z,1.90
2023-04-30T14:13:01.251Z,1.75
2023-04-30T14:15:30.670Z,1.85
2023-04-30T14:17:57.756Z,1.88
2023-04-30T14:20:25.543Z,2.20
2023-04-30T14:22:52.489Z,2.10
2023-04-30T14:25:19.491Z,1.95
2023-04-30T14:27:47.364Z,1.80
2023-04-30T14:30:14.421Z,1.80
2023-04-30T14:32:41.453Z,1.92
2023-04-30T14:35:09.810Z,2.05
2023-04-30T14:37:36.671Z,2.00
2023-04-30T14:40:05.293Z,1.80
2023-04-30T14:42:33.420Z,2.08
2023-04-30T14:45:00.303Z,1.92
2023-04-30T14:47:27.905Z,1.85
2023-04-30T14:49:54.995Z,2.10
2023-04-30T14:52:22.512Z,2.05
2023-04-30T14:54:49.424Z,2.15
2023-04-30T14:57:17.725Z,2.10
2023-04-30T14:59:44.617Z,1.80
2023-04-30T15:02:11.613Z,1.70
2023-04-30T15:04:38.535Z,1.90
2023-04-30T15:07:05.597Z,1.92
2023-04-30T15:09:32.501Z,1.80
2023-04-30T15:11:59.373Z,2.03
2023-04-30T15:14:26.304Z,1.90
2023-04-30T15:16:54.313Z,1.83
2023-04-30T15:19:21.209Z,2.15
2023-04-30T15:21:49.148Z,1.92
2023-04-30T15:24:16.187Z,1.80
2023-04-30T15:26:43.126Z,2.13
2023-04-30T15:29:10.583Z,1.80
2023-04-30T15:31:37.835Z,2.03
2023-04-30T15:34:04.788Z,2.20
2023-04-30T15:36:32.447Z,2.08
2023-04-30T15:38:59.580Z,2.08
2023-04-30T15:41:26.455Z,1.88
2023-04-30T15:43:53.434Z,2.10
2023-04-30T15:46:20.519Z,2.03
2023-04-30T15:48:47.448Z,1.92
2023-04-30T15:51:14.398Z,2.20
2023-04-30T15:53:41.329Z,2.10
2023-04-30T15:56:09.761Z,1.80
2023-04-30T15:58:36.802Z,1.95
2023-04-30T16:01:03.838Z,2.15
2023-04-30T16:03:31.576Z,1.92
2023-04-30T16:06:01.186Z,2.17
2023-04-30T16:08:28.553Z,1.95
2023-04-30T16:10:55.577Z,2.13
2023-04-30T16:13:22.484Z,1.98
2023-04-30T16:15:50.506Z,1.80
2023-04-30T16:18:17.346Z,1.95
2023-04-30T16:20:47.276Z,2.30
2023-04-30T16:23:14.525Z,1.80
2023-04-30T16:25:41.458Z,1.98
2023-04-30T16:28:08.322Z,2.03
2023-04-30T16:30:35.237Z,1.90
2023-04-30T16:33:02.160Z,1.98
2023-04-30T16:35:29.077Z,1.80
2023-04-30T16:37:56.054Z,1.73
2023-04-30T16:40:22.996Z,1.73
2023-04-30T16:42:50.299Z,1.70
2023-04-30T16:45:17.329Z,1.50
2023-04-30T16:47:44.672Z,1.98
2023-04-30T16:50:11.614Z,1.90
2023-04-30T16:52:38.607Z,2.10
2023-04-30T16:55:05.976Z,1.80
2023-04-30T16:57:33.218Z,1.63
2023-04-30T17:00:00.228Z,2.00
2023-04-30T17:02:27.329Z,1.80
2023-04-30T17:04:54.290Z,1.95
2023-04-30T17:07:21.189Z,1.75
2023-04-30T17:09:48.129Z,1.80
2023-04-30T17:12:14.967Z,2.00
2023-04-30T17:14:42.192Z,1.98
2023-04-30T17:17:09.030Z,2.00
2023-04-30T17:19:35.956Z,1.77
2023-04-30T17:22:03.112Z,2.08
2023-04-30T17:24:30.066Z,2.00
2023-04-30T17:26:58.233Z,1.77
2023-04-30T17:29:25.285Z,2.03
2023-04-30T17:31:52.363Z,2.05
2023-04-30T17:34:19.404Z,2.22
2023-04-30T17:36:46.308Z,2.20
2023-04-30T17:39:13.286Z,2.10
2023-04-30T17:41:40.177Z,2.22
2023-04-30T17:44:07.104Z,1.88
2023-04-30T17:46:34.479Z,2.30
2023-04-30T17:49:01.821Z,2.20
2023-04-30T17:51:34.348Z,2.10
2023-04-30T17:54:01.403Z,2.10
2023-04-30T17:56:31.351Z,2.53
2023-04-30T17:58:58.920Z,2.00
2023-04-30T18:01:27.748Z,2.05
2023-04-30T18:03:55.316Z,2.10
2023-04-30T18:06:22.561Z,2.30
2023-04-30T18:08:49.519Z,2.28
2023-04-30T18:11:16.528Z,2.40
2023-04-30T18:13:43.498Z,2.05
2023-04-30T18:16:10.719Z,1.90
2023-04-30T18:18:37.707Z,2.10
2023-04-30T18:21:04.756Z,1.98
2023-04-30T18:23:31.693Z,2.10
2023-04-30T18:25:58.781Z,2.13
2023-04-30T18:28:25.800Z,2.30
2023-04-30T18:30:52.739Z,1.95
2023-04-30T18:33:19.693Z,2.20
2023-04-30T18:35:51.653Z,2.25
2023-04-30T18:38:18.864Z,2.30
2023-04-30T18:40:45.838Z,2.53
2023-04-30T18:43:14.106Z,2.22
2023-04-30T18:45:41.156Z,2.60
2023-04-30T18:48:08.257Z,2.35
2023-04-30T18:50:35.196Z,2.10
2023-04-30T18:53:02.135Z,2.17
2023-04-30T18:55:29.051Z,2.33
2023-04-30T18:57:56.497Z,2.30
2023-04-30T19:00:23.510Z,3.00
2023-04-30T19:02:50.519Z,2.00
2023-04-30T19:05:17.916Z,2.13
2023-04-30T19:07:45.189Z,2.45
2023-04-30T19:10:12.093Z,2.20
2023-04-30T19:12:39.317Z,2.22
2023-04-30T19:15:08.304Z,2.30
2023-04-30T19:17:35.420Z,2.17
2023-04-30T19:20:02.393Z,2.30
2023-04-30T19:22:29.282Z,2.00
2023-04-30T19:24:56.199Z,2.40
2023-04-30T19:27:23.221Z,2.33
2023-04-30T19:29:53.336Z,2.17
2023-04-30T19:32:21.085Z,2.08
2023-04-30T19:34:48.133Z,2.35
2023-04-30T19:37:15.076Z,1.92
2023-04-30T19:39:41.925Z,2.20
2023-04-30T19:42:08.969Z,2.33
2023-04-30T19:44:36.043Z,2.10
2023-04-30T19:47:03.604Z,2.00
2023-04-30T19:49:30.522Z,2.00
2023-04-30T19:51:58.647Z,2.40
2023-04-30T19:54:25.534Z,2.00
2023-04-30T19:56:55.494Z,2.20
2023-04-30T19:59:22.402Z,1.90
2023-04-30T20:01:49.399Z,2.38
2023-04-30T20:04:16.309Z,2.20
2023-04-30T20:06:44.707Z,2.42
2023-04-30T20:09:11.845Z,2.22
2023-04-30T20:11:38.739Z,2.25
2023-04-30T20:14:06.017Z,2.17
2023-04-30T20:16:32.954Z,2.40
2023-04-30T20:18:59.954Z,2.20
2023-04-30T20:21:29.168Z,2.25
2023-04-30T20:23:56.001Z,2.22
2023-04-30T20:26:25.709Z,2.40
2023-04-30T20:28:53.138Z,2.25
2023-04-30T20:31:20.063Z,2.47
2023-04-30T20:33:48.665Z,2.45
2023-04-30T20:36:15.882Z,2.35
2023-04-30T20:38:42.839Z,2.60
2023-04-30T20:41:10.269Z,2.65
2023-04-30T20:43:37.303Z,2.90
2023-04-30T20:46:04.223Z,2.50
2023-04-30T20:48:31.256Z,2.45
2023-04-30T20:50:58.126Z,2.70
2023-04-30T20:53:25.027Z,2.70
2023-04-30T20:55:52.114Z,2.60
2023-04-30T20:58:19.029Z,2.75
2023-04-30T21:00:45.979Z,2.60
2023-04-30T21:03:13.014Z,2.53
2023-04-30T21:05:40.933Z,2.60
2023-04-30T21:08:07.786Z,2.60
2023-04-30T21:10:37.461Z,2.40
2023-04-30T21:13:05.474Z,2.40
2023-04-30T21:15:34.449Z,2.65
2023-04-30T21:18:01.453Z,2.78
2023-04-30T21:20:28.467Z,2.90
2023-04-30T21:22:56.624Z,2.85
2023-04-30T21:25:23.545Z,2.60
2023-04-30T21:27:50.463Z,2.80
2023-04-30T21:30:17.544Z,2.45
2023-04-30T21:32:47.197Z,2.65
2023-04-30T21:35:14.793Z,2.72
2023-04-30T21:37:42.186Z,2.50
2023-04-30T21:40:09.645Z,3.03
2023-04-30T21:42:36.701Z,2.42
2023-04-30T21:45:03.797Z,2.63
2023-04-30T21:47:30.991Z,3.08
2023-04-30T21:49:58.844Z,2.67
2023-04-30T21:52:26.098Z,2.85
2023-04-30T21:54:53.826Z,2.60
2023-04-30T21:57:21.524Z,2.50
2023-04-30T21:59:48.402Z,2.80
2023-04-30T22:02:23.953Z,2.40
2023-04-30T22:04:51.537Z,2.90
2023-04-30T22:07:18.473Z,2.78
2023-04-30T22:09:45.620Z,2.95
2023-04-30T22:12:12.785Z,2.78
2023-04-30T22:14:39.632Z,2.90
2023-04-30T22:17:06.684Z,3.10
2023-04-30T22:19:33.518Z,2.75
2023-04-30T22:22:00.378Z,2.50
2023-04-30T22:24:27.199Z,3.17
2023-04-30T22:26:54.777Z,2.65
2023-04-30T22:29:21.689Z,2.70
2023-04-30T22:31:48.812Z,2.63
2023-04-30T22:34:17.983Z,2.90
2023-04-30T22:36:44.896Z,2.60
2023-04-30T22:39:11.919Z,2.72
2023-04-30T22:41:39.067Z,2.70
2023-04-30T22:44:06.068Z,3.22
2023-04-30T22:46:34.879Z,2.70
2023-04-30T22:49:01.900Z,3.05
2023-04-30T22:51:28.841Z,2.97
2023-04-30T22:53:56.808Z,2.90
2023-04-30T22:56:24.482Z,2.58
2023-04-30T22:58:52.291Z,2.88
2023-04-30T23:01:20.247Z,3.05
2023-04-30T23:03:47.244Z,3.00
2023-04-30T23:06:14.710Z,2.63
2023-04-30T23:08:41.673Z,2.67
2023-04-30T23:11:08.689Z,2.70
2023-04-30T23:13:35.632Z,2.40
2023-04-30T23:16:05.688Z,2.40
2023-04-30T23:18:32.723Z,3.00
2023-04-30T23:20:59.763Z,2.50
2023-04-30T23:23:30.181Z,3.10
2023-04-30T23:25:57.184Z,3.38
2023-04-30T23:28:26.999Z,3.33
2023-04-30T23:30:54.921Z,3.17
2023-04-30T23:33:22.070Z,3.20
2023-04-30T23:35:49.204Z,3.25
2023-04-30T23:38:16.514Z,3.00
2023-04-30T23:40:44.461Z,3.03
2023-04-30T23:43:14.531Z,3.10
2023-04-30T23:45:44.990Z,2.78
2023-04-30T23:48:12.069Z,2.70
2023-04-30T23:50:39.037Z,2.72
2023-04-30T23:53:05.973Z,2.90
2023-04-30T23:55:32.970Z,3.28
2023-04-30T23:57:59.913Z,2.97
